Time;durP1;ratioP1;P1;durP2;ratioP2;P2;SDS_P1;SDS_P2;PMS_P1;PMS_P2;Temp;Humidity;BMP_temperature;BMP_pressure;BME280_temperature;BME280_humidity;BME280_pressure;Samples;Min_cycle;Max_cycle;Signal;HPM_P1;HPM_P2
2021/08/13 00:01:14;;;;;;;6.47;3.87;;;;;;;18.63;58.82;99914.05;1686367;85;21056;-41
2021/08/13 00:03:41;;;;;;;5.75;3.80;;;;;;;18.59;58.58;99912.67;1686693;85;21111;-41
2021/08/13 00:06:08;;;;;;;5.85;4.08;;;;;;;18.51;58.17;99915.23;1686532;85;21005;-41
2021/08/13 00:08:35;;;;;;;7.53;4.03;;;;;;;18.43;58.07;99917.83;1686384;85;21008;-41
2021/08/13 00:11:01;;;;;;;6.12;4.05;;;;;;;18.38;58.13;99919.61;1686561;85;21548;-41
2021/08/13 00:13:27;;;;;;;10.90;4.22;;;;;;;18.31;58.38;99925.11;1709687;83;21542;-41
2021/08/13 00:15:56;;;;;;;6.92;4.25;;;;;;;18.25;58.39;99921.20;1751171;81;20993;-41
2021/08/13 00:18:24;;;;;;;6.10;4.08;;;;;;;18.19;58.44;99919.48;1714987;83;21064;-40
2021/08/13 00:20:52;;;;;;;7.17;3.95;;;;;;;18.14;58.78;99925.37;1756512;81;21012;-41
2021/08/13 00:23:19;;;;;;;6.10;4.00;;;;;;;18.11;58.48;99925.37;1756944;81;21516;-41
2021/08/13 00:25:45;;;;;;;6.20;4.20;;;;;;;18.06;58.46;99928.52;1720449;83;21060;-41
2021/08/13 00:28:12;;;;;;;6.30;4.25;;;;;;;17.99;58.96;99927.17;1720871;83;21108;-41
2021/08/13 00:30:39;;;;;;;4.65;3.33;;;;;;;17.93;59.41;99926.78;1720406;83;21015;-41
2021/08/13 00:33:05;;;;;;;6.67;3.77;;;;;;;17.92;59.68;99921.69;1721029;83;20981;-41
2021/08/13 00:35:33;;;;;;;5.30;4.17;;;;;;;17.95;59.71;99922.28;1720446;83;21522;-41
2021/08/13 00:38:00;;;;;;;5.80;4.00;;;;;;;17.97;59.28;99920.70;1720576;83;21075;-41
2021/08/13 00:40:27;;;;;;;7.33;3.92;;;;;;;17.97;59.52;99921.28;1720526;83;21099;-41
2021/08/13 00:42:54;;;;;;;7.55;3.98;;;;;;;17.95;59.22;99917.59;1720536;83;21079;-41
2021/08/13 00:45:21;;;;;;;9.40;4.37;;;;;;;17.94;59.22;99920.13;1720740;82;21053;-40
2021/08/13 00:48:04;;;;;;;5.83;4.00;;;;;;;17.95;59.20;99925.81;1719551;83;21498;-41
2021/08/13 00:50:35;;;;;;;6.58;4.10;;;;;;;17.92;58.95;99928.55;1719866;83;21075;-41
2021/08/13 00:53:03;;;;;;;6.47;3.80;;;;;;;17.88;59.13;99929.93;1720581;83;21981;-41
2021/08/13 00:55:30;;;;;;;6.62;4.30;;;;;;;17.82;59.26;99928.76;1694084;83;21552;-41
2021/08/13 00:57:59;;;;;;;10.13;4.22;;;;;;;17.77;59.59;99931.31;1720551;83;20996;-41
2021/08/13 01:00:36;;;;;;;5.70;4.10;;;;;;;17.73;59.77;99927.80;1704838;83;21023;-40
2021/08/13 01:03:04;;;;;;;5.42;3.90;;;;;;;17.68;60.07;99928.19;1720540;83;21577;-41
2021/08/13 01:05:32;;;;;;;4.80;3.52;;;;;;;17.67;60.04;99934.09;1694072;83;21104;-40
2021/08/13 01:08:00;;;;;;;6.00;3.85;;;;;;;17.71;60.38;99933.49;1720568;83;21545;-41
2021/08/13 01:10:31;;;;;;;7.72;3.62;;;;;;;17.71;60.13;99928.80;1720476;83;21003;-41
2021/08/13 01:13:17;;;;;;;7.57;3.87;;;;;;;17.68;60.36;99925.45;1720866;83;20889;-40
2021/08/13 01:15:49;;;;;;;5.78;4.12;;;;;;;17.69;60.44;99930.34;1720913;83;21055;-40
2021/08/13 01:18:23;;;;;;;6.22;3.85;;;;;;;17.64;60.17;99930.74;1693792;83;21858;-41
2021/08/13 01:21:15;;;;;;;5.12;3.92;;;;;;;17.56;60.29;99933.27;1716018;83;22131;-41
2021/08/13 01:23:55;;;;;;;9.25;4.37;;;;;;;17.49;60.67;99929.93;1714820;83;21012;-40
2021/08/13 01:26:26;;;;;;;7.53;4.35;;;;;;;17.40;60.84;99928.17;1751487;81;21622;-40
2021/08/13 01:29:19;;;;;;;7.50;4.20;;;;;;;17.36;61.28;99935.61;1687307;83;21512;-40
2021/08/13 01:32:17;;;;;;;6.37;3.83;;;;;;;17.35;61.11;99935.41;1715298;83;21087;-41
2021/08/13 01:34:52;;;;;;;7.78;4.05;;;;;;;17.33;61.12;99932.30;1715365;83;21503;-40
2021/08/13 01:37:20;;;;;;;6.37;3.77;;;;;;;17.40;60.80;99940.50;1751566;82;20965;-41
2021/08/13 01:39:50;;;;;;;7.15;4.30;;;;;;;17.50;60.66;99950.69;1750706;81;21607;-41
2021/08/13 01:42:19;;;;;;;10.13;4.20;;;;;;;17.56;61.04;99949.72;1708476;82;21401;-40
2021/08/13 01:44:47;;;;;;;7.35;3.85;;;;;;;17.53;61.02;99955.38;1713579;83;21013;-41
2021/08/13 01:47:15;;;;;;;6.55;4.03;;;;;;;17.49;61.11;99953.23;1736956;81;20929;-41
2021/08/13 01:49:45;;;;;;;8.75;4.03;;;;;;;17.46;60.99;99964.20;1764099;81;21012;-41
2021/08/13 01:52:12;;;;;;;8.60;3.85;;;;;;;17.41;61.02;99961.27;1764174;81;21607;-41
2021/08/13 01:54:39;;;;;;;6.40;4.28;;;;;;;17.35;61.01;99965.56;1764180;81;21028;-40
2021/08/13 01:57:07;;;;;;;9.68;4.78;;;;;;;17.28;61.22;99961.45;1764289;81;21148;-41
2021/08/13 01:59:36;;;;;;;6.53;2.77;;;;;;;17.21;61.37;99966.91;1757858;81;21596;-41
2021/08/13 02:02:04;;;;;;;6.45;4.30;;;;;;;17.15;61.62;99972.57;1764121;81;20965;-41
2021/08/13 02:04:34;;;;;;;;;;;;;;;17.13;61.67;99966.12;1766789;81;21076;-41
2021/08/13 02:07:03;;;;;;;7.53;4.22;;;;;;;17.13;61.90;99970.82;1764320;81;20165;-41
2021/08/13 02:09:32;;;;;;;6.72;3.87;;;;;;;17.06;62.10;99975.69;1764055;81;21163;-41
2021/08/13 02:11:59;;;;;;;7.05;4.35;;;;;;;17.07;62.22;99973.16;1731486;81;20889;-41
2021/08/13 02:14:26;;;;;;;7.97;4.37;;;;;;;17.08;62.18;99980.20;1659033;85;21036;-41
2021/08/13 02:16:54;;;;;;;6.70;4.35;;;;;;;17.06;62.09;99977.05;1743103;81;21016;-41
2021/08/13 02:19:35;;;;;;;6.40;4.00;;;;;;;17.05;62.25;99984.28;1752304;81;21045;-41
2021/08/13 02:22:03;;;;;;;8.90;4.35;;;;;;;17.03;62.50;99986.64;1756425;81;21844;-40
2021/08/13 02:24:31;;;;;;;6.00;3.90;;;;;;;16.95;62.62;99982.50;1694023;83;20960;-40
2021/08/13 02:27:01;;;;;;;8.80;4.10;;;;;;;16.92;62.92;99986.02;1719573;83;20911;-41
2021/08/13 02:29:28;;;;;;;7.62;4.10;;;;;;;16.97;62.94;99993.66;1720416;83;21080;-41
2021/08/13 02:31:56;;;;;;;6.58;3.92;;;;;;;17.00;62.83;99992.30;1720768;83;21115;-41
2021/08/13 02:34:24;;;;;;;6.15;4.25;;;;;;;17.00;62.81;99995.03;1720346;83;21130;-41
2021/08/13 02:36:56;;;;;;;6.17;4.30;;;;;;;16.99;62.61;99993.48;1720609;83;21008;-40
2021/08/13 02:39:28;;;;;;;6.55;3.85;;;;;;;16.94;62.78;99994.63;1694323;83;21025;-40
2021/08/13 02:41:57;;;;;;;6.97;3.92;;;;;;;16.89;62.89;99997.73;1720266;83;20984;-40
2021/08/13 02:44:24;;;;;;;9.45;4.60;;;;;;;16.81;63.18;99992.63;1720478;83;21099;-40
2021/08/13 02:47:05;;;;;;;6.03;3.90;;;;;;;16.76;63.29;99995.73;1720564;83;21137;-41
2021/08/13 02:49:32;;;;;;;6.58;3.70;;;;;;;16.77;63.27;99997.30;1720372;83;21004;-41
2021/08/13 02:52:04;;;;;;;6.08;4.12;;;;;;;16.81;63.19;100001.62;1720586;83;21403;-41
2021/08/13 02:54:34;;;;;;;6.95;3.70;;;;;;;16.84;63.07;99996.77;1720278;83;21032;-42
2021/08/13 02:57:02;;;;;;;5.70;4.42;;;;;;;16.86;63.08;100001.25;1720577;83;21009;-42
2021/08/13 02:59:31;;;;;;;6.58;4.62;;;;;;;16.87;63.04;100004.20;1720548;83;21863;-42
2021/08/13 03:02:00;;;;;;;9.08;4.58;;;;;;;16.88;62.95;100004.41;1720383;83;21578;-42
2021/08/13 03:04:29;;;;;;;7.12;4.37;;;;;;;16.92;62.79;99996.98;1720607;83;21538;-42
2021/08/13 03:06:57;;;;;;;6.05;4.50;;;;;;;16.97;62.54;100004.62;1720516;83;20897;-42
2021/08/13 03:09:25;;;;;;;6.42;4.37;;;;;;;16.98;62.28;100007.56;1720476;83;21064;-41
2021/08/13 03:11:51;;;;;;;9.63;4.83;;;;;;;16.95;62.20;100011.84;1720816;83;21513;-42
2021/08/13 03:14:19;;;;;;;7.08;4.22;;;;;;;16.93;62.27;100007.35;1648460;83;20917;-42
2021/08/13 03:16:48;;;;;;;6.08;4.25;;;;;;;16.92;62.38;100012.05;1720466;82;20920;-42
2021/08/13 03:19:16;;;;;;;9.85;4.55;;;;;;;16.99;62.26;100010.50;1702178;84;21056;-42
2021/08/13 03:21:43;;;;;;;7.22;4.60;;;;;;;17.07;62.11;100012.09;1720532;83;21051;-42
2021/08/13 03:24:12;;;;;;;9.18;4.40;;;;;;;17.13;61.97;100015.45;1691621;84;20948;-42
2021/08/13 03:26:40;;;;;;;12.73;5.03;;;;;;;17.18;61.74;100023.87;1664819;84;20980;-42
2021/08/13 03:29:09;;;;;;;9.83;4.55;;;;;;;17.09;61.57;100017.98;1691223;84;21020;-41
2021/08/13 03:31:40;;;;;;;9.15;5.10;;;;;;;17.08;61.76;100025.99;1674192;85;21045;-41
2021/08/13 03:34:09;;;;;;;6.55;4.37;;;;;;;16.99;61.81;100029.68;1691658;84;21024;-42
2021/08/13 03:36:38;;;;;;;11.10;4.45;;;;;;;16.90;62.10;100030.02;1702572;84;20958;-42
2021/08/13 03:39:08;;;;;;;7.47;4.83;;;;;;;16.87;62.27;100027.48;1702395;84;21555;-42
2021/08/13 03:41:34;;;;;;;7.67;4.20;;;;;;;16.86;62.31;100025.91;1702531;84;20950;-42
2021/08/13 03:44:04;;;;;;;8.03;4.58;;;;;;;16.91;62.29;100029.64;1702651;84;21085;-42
2021/08/13 03:46:30;;;;;;;8.43;4.17;;;;;;;17.01;62.21;100031.43;1702639;84;21017;-42
2021/08/13 03:48:59;;;;;;;10.00;4.62;;;;;;;17.06;62.11;100029.11;1702378;84;21906;-42
2021/08/13 03:51:27;;;;;;;7.85;4.72;;;;;;;17.10;62.03;100028.53;1702506;84;20939;-42
2021/08/13 03:53:55;;;;;;;7.15;4.22;;;;;;;17.14;61.94;100035.38;1702357;84;21053;-42
2021/08/13 03:56:23;;;;;;;7.35;4.62;;;;;;;17.09;61.90;100043.39;1702659;84;21090;-42
2021/08/13 03:58:50;;;;;;;7.62;4.53;;;;;;;17.06;62.17;100048.87;1702402;84;21054;-41
2021/08/13 04:01:17;;;;;;;10.30;4.67;;;;;;;17.07;62.26;100044.97;1702432;84;21094;-42
2021/08/13 04:03:43;;;;;;;7.25;4.80;;;;;;;17.03;62.35;100045.54;1702397;84;21070;-42
2021/08/13 04:06:10;;;;;;;7.60;4.30;;;;;;;16.98;62.52;100052.17;1702754;84;20991;-42
2021/08/13 04:08:38;;;;;;;8.15;4.55;;;;;;;17.02;62.75;100049.44;1736119;82;20999;-42
2021/08/13 04:11:05;;;;;;;7.45;4.42;;;;;;;17.10;62.77;100049.66;1706915;84;21072;-42
2021/08/13 04:13:34;;;;;;;8.38;4.75;;;;;;;17.18;62.67;100045.79;1706593;84;21146;-42
2021/08/13 04:16:04;;;;;;;9.55;4.87;;;;;;;17.20;62.71;100044.80;1706577;83;21617;-42
2021/08/13 04:18:31;;;;;;;6.92;4.35;;;;;;;17.22;62.77;100041.10;1706692;84;21032;-42
2021/08/13 04:21:00;;;;;;;8.07;5.03;;;;;;;17.27;62.90;100044.25;1705205;84;21510;-42
2021/08/13 04:23:30;;;;;;;;;;;;;;;17.30;62.77;100044.05;1753356;81;21519;-42
2021/08/13 04:25:59;;;;;;;10.55;4.37;;;;;;;17.31;62.97;100048.37;1733433;82;20124;-42
2021/08/13 04:28:27;;;;;;;7.97;4.55;;;;;;;17.20;63.28;100053.02;1743281;81;21472;-42
2021/08/13 04:30:55;;;;;;;10.58;4.90;;;;;;;17.24;63.60;100049.12;1743114;82;21005;-42
2021/08/13 04:33:21;;;;;;;8.78;4.42;;;;;;;17.36;63.71;100054.84;1743177;82;21038;-42
2021/08/13 04:35:49;;;;;;;8.35;4.83;;;;;;;17.48;63.46;100053.09;1707122;83;21069;-42
2021/08/13 04:38:17;;;;;;;8.03;4.67;;;;;;;17.54;63.53;100058.39;1707412;84;21133;-42
2021/08/13 04:40:45;;;;;;;6.50;4.55;;;;;;;17.60;63.39;100060.98;1743418;82;20978;-42
2021/08/13 04:43:12;;;;;;;7.85;4.60;;;;;;;17.63;63.40;100067.05;1707409;84;21260;-42
2021/08/13 04:45:40;;;;;;;8.43;5.22;;;;;;;17.66;63.28;100065.51;1703900;84;20998;-42
2021/08/13 04:48:07;;;;;;;7.35;4.58;;;;;;;17.67;63.43;100071.20;1758840;81;20985;-42
2021/08/13 04:50:35;;;;;;;5.42;4.60;;;;;;;17.68;63.42;100074.11;1758757;81;21772;-42
2021/08/13 04:53:07;;;;;;;6.08;4.12;;;;;;;17.73;63.49;100070.41;1758544;81;20969;-42
2021/08/13 04:55:35;;;;;;;9.58;4.97;;;;;;;17.85;63.34;100069.83;1758537;81;20957;-42
2021/08/13 04:58:02;;;;;;;7.35;4.10;;;;;;;17.93;63.32;100070.02;1758606;81;20929;-42
2021/08/13 05:00:30;;;;;;;8.08;4.80;;;;;;;18.01;63.31;100078.47;1758888;81;21057;-42
2021/08/13 05:03:04;;;;;;;8.30;4.85;;;;;;;18.02;62.99;100077.27;1757994;81;21837;-42
2021/08/13 05:05:32;;;;;;;7.50;4.87;;;;;;;18.02;63.31;100084.13;1758893;81;20928;-42
2021/08/13 05:07:59;;;;;;;8.18;4.85;;;;;;;18.05;63.33;100078.67;1758784;81;21022;-42
2021/08/13 05:10:26;;;;;;;9.55;4.42;;;;;;;18.09;63.35;100084.15;1758641;81;21029;-42
2021/08/13 05:12:55;;;;;;;7.05;4.22;;;;;;;18.19;63.59;100082.78;1740930;81;21010;-42
2021/08/13 05:15:22;;;;;;;7.20;3.92;;;;;;;18.32;63.09;100088.64;1713684;83;21071;-42
2021/08/13 05:17:50;;;;;;;6.10;4.30;;;;;;;18.46;62.62;100089.20;1713378;83;20941;-42
2021/08/13 05:20:19;;;;;;;;;;;;;;;18.54;62.69;100097.06;1715918;82;21484;-42
2021/08/13 05:22:48;;;;;;;5.53;4.10;;;;;;;18.64;62.50;100089.39;1715088;82;20184;-42
2021/08/13 05:25:15;;;;;;;7.10;3.70;;;;;;;18.64;62.30;100091.36;1707452;84;21040;-42
2021/08/13 05:27:42;;;;;;;5.58;4.17;;;;;;;18.71;61.87;100100.18;1707397;84;21909;-42
2021/08/13 05:30:13;;;;;;;7.28;3.90;;;;;;;18.77;61.89;100103.51;1743124;81;21001;-42
2021/08/13 05:32:44;;;;;;;7.70;3.75;;;;;;;18.86;61.59;100109.95;1707199;83;21008;-42
2021/08/13 05:35:11;;;;;;;4.85;3.42;;;;;;;18.91;61.61;100110.34;1707772;84;21547;-42
2021/08/13 05:37:39;;;;;;;6.50;3.70;;;;;;;19.00;61.41;100112.66;1743121;81;21049;-42
2021/08/13 05:40:08;;;;;;;4.47;3.62;;;;;;;19.12;61.25;100120.48;1707300;83;21155;-42
2021/08/13 05:42:37;;;;;;;6.17;3.95;;;;;;;19.24;61.06;100121.41;1743308;82;20959;-42
2021/08/13 05:45:06;;;;;;;4.95;3.85;;;;;;;19.35;61.23;100117.24;1707730;83;21044;-42
2021/08/13 05:47:37;;;;;;;6.28;4.25;;;;;;;19.44;61.05;100124.48;1743411;81;21009;-42
2021/08/13 05:50:03;;;;;;;6.33;4.33;;;;;;;19.47;60.95;100125.84;1707234;83;21350;-42
2021/08/13 05:52:30;;;;;;;8.53;4.62;;;;;;;19.52;60.80;100121.30;1743069;82;21149;-42
2021/08/13 05:54:57;;;;;;;6.35;4.20;;;;;;;19.56;60.71;100126.02;1707396;83;20969;-42
2021/08/13 05:57:23;;;;;;;6.78;4.70;;;;;;;19.60;60.84;100117.93;1743269;82;21025;-42
2021/08/13 05:59:51;;;;;;;7.62;4.60;;;;;;;19.66;61.04;100121.80;1743180;81;21607;-42
2021/08/13 06:02:18;;;;;;;8.58;4.37;;;;;;;19.76;61.02;100127.84;1707426;84;21024;-42
2021/08/13 06:04:45;;;;;;;8.30;3.90;;;;;;;19.91;60.48;100120.27;1743413;82;21044;-42
2021/08/13 06:07:11;;;;;;;8.48;4.28;;;;;;;20.03;60.33;100121.19;1743176;82;20990;-42
2021/08/13 06:09:39;;;;;;;5.28;3.92;;;;;;;20.15;59.96;100127.56;1707325;83;21645;-42
2021/08/13 06:12:06;;;;;;;4.90;3.80;;;;;;;20.23;59.46;100120.84;1743241;82;21481;-42
2021/08/13 06:14:33;;;;;;;6.10;4.17;;;;;;;20.29;59.43;100122.53;1743399;81;21079;-42
2021/08/13 06:17:03;;;;;;;6.17;4.00;;;;;;;20.36;59.17;100121.14;1707510;83;21801;-42
2021/08/13 06:19:31;;;;;;;5.97;3.85;;;;;;;20.44;59.05;100123.22;1707483;84;21512;-42
2021/08/13 06:22:00;;;;;;;7.05;3.90;;;;;;;20.53;58.88;100121.56;1751875;81;21000;-42
2021/08/13 06:24:28;;;;;;;7.45;4.22;;;;;;;20.61;58.12;100116.78;1756333;81;20953;-42
2021/08/13 06:26:57;;;;;;;5.33;3.40;;;;;;;20.66;58.08;100113.59;1756571;81;21531;-42
2021/08/13 06:29:24;;;;;;;5.75;3.77;;;;;;;20.71;57.59;100118.06;1756608;81;21134;-42
2021/08/13 06:31:52;;;;;;;6.20;3.85;;;;;;;20.76;57.82;100118.99;1756391;81;20921;-42
2021/08/13 06:34:20;;;;;;;5.90;3.80;;;;;;;20.84;57.11;100114.17;1744657;81;20961;-42
2021/08/13 06:36:47;;;;;;;6.53;3.60;;;;;;;20.92;57.10;100114.27;1726320;83;21538;-42
2021/08/13 06:39:14;;;;;;;6.40;3.75;;;;;;;20.97;56.84;100116.58;1726393;83;21043;-42
2021/08/13 06:41:41;;;;;;;4.37;3.15;;;;;;;21.06;56.78;100120.21;1726500;83;21092;-42
2021/08/13 06:44:10;;;;;;;5.58;3.70;;;;;;;21.13;56.61;100118.20;1724679;81;21104;-42
2021/08/13 06:46:39;;;;;;;5.83;3.62;;;;;;;21.17;56.11;100123.66;1720524;83;20976;-42
2021/08/13 06:49:07;;;;;;;5.00;3.62;;;;;;;21.23;56.07;100120.05;1720492;83;21025;-42
2021/08/13 06:51:33;;;;;;;6.25;3.70;;;;;;;21.30;55.76;100119.16;1720656;83;21080;-42
2021/08/13 06:54:00;;;;;;;4.22;3.83;;;;;;;21.39;55.28;100121.44;1720655;83;21141;-42
2021/08/13 06:56:29;;;;;;;4.78;3.58;;;;;;;21.46;54.78;100126.84;1720375;83;20921;-42
2021/08/13 06:58:56;;;;;;;6.65;3.52;;;;;;;21.53;54.18;100121.25;1720693;83;21518;-42
2021/08/13 07:01:23;;;;;;;5.45;3.72;;;;;;;21.60;54.58;100129.41;1720459;83;21040;-42
2021/08/13 07:03:50;;;;;;;4.78;3.22;;;;;;;21.67;54.37;100138.39;1720665;83;20964;-42
2021/08/13 07:06:18;;;;;;;4.42;3.50;;;;;;;21.74;53.71;100136.70;1720506;83;21207;-42
2021/08/13 07:08:44;;;;;;;7.75;3.60;;;;;;;21.82;53.50;100138.19;1720555;83;21004;-42
2021/08/13 07:11:14;;;;;;;4.53;3.30;;;;;;;21.86;52.89;100134.17;1720654;83;21024;-42
2021/08/13 07:13:41;;;;;;;4.75;3.08;;;;;;;21.92;53.18;100138.63;1720450;83;21087;-42
2021/08/13 07:16:08;;;;;;;6.97;3.30;;;;;;;21.97;52.83;100143.13;1720586;83;21071;-42
2021/08/13 07:18:37;;;;;;;3.40;3.10;;;;;;;22.07;52.34;100130.35;1720597;83;20969;-42
2021/08/13 07:21:04;;;;;;;6.80;3.65;;;;;;;22.16;51.74;100130.59;1719633;83;21696;-42
2021/08/13 07:23:31;;;;;;;4.70;3.45;;;;;;;22.26;52.22;100133.79;1743722;81;20972;-42
2021/08/13 07:25:58;;;;;;;6.17;3.60;;;;;;;22.41;51.70;100137.09;1741262;82;21041;-42
2021/08/13 07:28:25;;;;;;;7.97;4.08;;;;;;;22.52;51.24;100128.78;1751026;82;21006;-42
2021/08/13 07:30:52;;;;;;;5.30;3.52;;;;;;;22.63;50.29;100129.20;1751147;82;21133;-42
2021/08/13 07:33:19;;;;;;;4.72;3.37;;;;;;;22.67;50.23;100134.84;1751012;82;20969;-42
2021/08/13 07:35:46;;;;;;;7.30;3.87;;;;;;;22.69;50.09;100128.30;1751210;82;21022;-42
2021/08/13 07:38:13;;;;;;;5.40;3.70;;;;;;;22.77;50.02;100119.30;1751068;82;21068;-42
2021/08/13 07:40:40;;;;;;;7.15;3.50;;;;;;;22.86;50.15;100120.89;1751379;82;21005;-42
2021/08/13 07:43:08;;;;;;;4.85;3.75;;;;;;;23.01;50.54;100125.55;1715081;83;21613;-42
2021/08/13 07:45:36;;;;;;;4.37;3.22;;;;;;;23.15;49.50;100126.64;1751146;81;20997;-42
2021/08/13 07:48:04;;;;;;;5.62;3.08;;;;;;;23.26;48.78;100120.30;1751303;82;21464;-42
2021/08/13 07:50:31;;;;;;;5.20;3.47;;;;;;;23.39;48.52;100122.59;1751068;82;21508;-42
2021/08/13 07:52:59;;;;;;;5.85;3.20;;;;;;;23.51;47.97;100126.13;1715147;83;21100;-42
2021/08/13 07:55:27;;;;;;;4.72;3.33;;;;;;;23.58;47.26;100120.42;1715082;83;21546;-42
2021/08/13 07:57:55;;;;;;;4.92;3.20;;;;;;;23.60;47.26;100120.00;1715026;83;21233;-42
2021/08/13 08:00:23;;;;;;;4.78;3.42;;;;;;;23.64;47.70;100121.48;1715143;83;21032;-42
2021/08/13 08:02:51;;;;;;;4.90;2.90;;;;;;;23.71;47.18;100127.47;1751120;82;21063;-42
2021/08/13 08:05:18;;;;;;;4.22;3.17;;;;;;;23.77;46.47;100116.82;1751296;82;20994;-42
2021/08/13 08:07:45;;;;;;;4.17;2.92;;;;;;;23.87;47.33;100120.55;1710744;83;21141;-42
2021/08/13 08:10:12;;;;;;;5.72;3.17;;;;;;;23.99;46.09;100127.42;1689298;85;21524;-43
2021/08/13 08:12:40;;;;;;;5.45;3.52;;;;;;;24.01;45.83;100129.91;1689250;85;21588;-43
2021/08/13 08:15:09;;;;;;;4.55;3.42;;;;;;;24.00;45.88;100124.22;1689343;85;21052;-42
2021/08/13 08:17:35;;;;;;;12.07;3.50;;;;;;;24.01;45.39;100124.38;1689422;85;21088;-42
2021/08/13 08:20:03;;;;;;;4.53;3.20;;;;;;;24.06;45.85;100108.63;1689377;85;21156;-42
2021/08/13 08:22:30;;;;;;;5.75;3.20;;;;;;;24.19;46.09;100126.77;1684240;84;21070;-42
2021/08/13 08:24:56;;;;;;;3.60;2.83;;;;;;;24.23;45.91;100113.00;1660328;85;21028;-42
2021/08/13 08:27:22;;;;;;;6.03;3.22;;;;;;;24.28;45.30;100104.77;1700338;84;21055;-42
2021/08/13 08:29:50;;;;;;;5.00;3.20;;;;;;;24.33;45.60;100125.03;1709931;83;21036;-42
2021/08/13 08:32:16;;;;;;;4.10;2.70;;;;;;;24.40;45.50;100119.92;1700243;84;22156;-43
2021/08/13 08:34:43;;;;;;;8.38;3.30;;;;;;;24.52;45.63;100121.36;1709968;83;20973;-42
2021/08/13 08:37:11;;;;;;;5.62;3.15;;;;;;;24.66;43.78;100125.75;1700426;84;21073;-42
2021/08/13 08:39:38;;;;;;;3.87;3.00;;;;;;;24.72;44.31;100124.62;1709949;83;21009;-42
2021/08/13 08:42:13;;;;;;;2.98;2.67;;;;;;;24.83;44.58;100116.80;1700309;84;21076;-42
2021/08/13 08:44:40;;;;;;;4.35;2.92;;;;;;;24.91;44.12;100123.13;1696096;83;21139;-42
2021/08/13 08:47:08;;;;;;;5.22;3.02;;;;;;;24.95;44.12;100121.63;1681351;85;21030;-42
2021/08/13 08:49:36;;;;;;;5.08;3.25;;;;;;;24.94;43.67;100118.08;1672081;85;20989;-42
2021/08/13 08:52:05;;;;;;;3.90;2.60;;;;;;;24.91;42.79;100123.13;1681452;85;21096;-42
2021/08/13 08:54:31;;;;;;;5.85;2.87;;;;;;;24.89;42.49;100120.00;1672015;85;21080;-43
2021/08/13 08:56:58;;;;;;;10.23;5.33;;;;;;;24.92;42.11;100118.36;1681422;85;21108;-42
2021/08/13 08:59:24;;;;;;;3.72;3.12;;;;;;;24.94;43.44;100110.36;1671888;85;21037;-42
2021/08/13 09:01:51;;;;;;;4.40;2.70;;;;;;;25.01;42.71;100110.17;1681360;85;21554;-42
2021/08/13 09:04:17;;;;;;;4.45;2.90;;;;;;;25.09;43.52;100118.45;1660534;86;21043;-42
2021/08/13 09:06:43;;;;;;;3.20;2.58;;;;;;;25.18;42.13;100110.88;1657050;86;21049;-42
2021/08/13 09:09:11;;;;;;;4.53;2.98;;;;;;;25.20;43.07;100112.00;1656940;86;21129;-42
2021/08/13 09:11:41;;;;;;;3.83;2.72;;;;;;;25.23;42.95;100104.17;1681332;85;21072;-42
2021/08/13 09:14:11;;;;;;;4.80;2.90;;;;;;;25.27;41.95;100115.19;1694110;84;20961;-42
2021/08/13 09:16:37;;;;;;;3.47;2.52;;;;;;;25.23;41.73;100113.89;1710054;83;21498;-42
2021/08/13 09:19:06;;;;;;;3.98;2.83;;;;;;;25.26;42.75;100118.58;1700352;84;21065;-42
2021/08/13 09:21:34;;;;;;;4.25;2.72;;;;;;;25.38;41.25;100110.09;1710470;83;21115;-43
2021/08/13 09:24:10;;;;;;;2.83;2.50;;;;;;;25.50;40.71;100111.51;1691455;84;21019;-42
2021/08/13 09:26:43;;;;;;;2.90;2.50;;;;;;;25.54;40.52;100105.84;1660499;84;21467;-42
2021/08/13 09:29:14;;;;;;;5.42;2.80;;;;;;;25.52;41.12;100110.44;1658767;85;20975;-42
2021/08/13 09:31:51;;;;;;;3.55;2.50;;;;;;;25.52;41.23;100114.60;1693119;84;21112;-43
2021/08/13 09:34:30;;;;;;;3.97;2.60;;;;;;;25.61;40.84;100106.27;1673545;84;21838;-42
2021/08/13 09:36:57;;;;;;;3.52;2.30;;;;;;;25.79;41.44;100112.05;1673841;85;21008;-42
2021/08/13 09:39:30;;;;;;;5.47;3.00;;;;;;;25.90;40.65;100114.64;1693151;84;21537;-42
2021/08/13 09:41:59;;;;;;;4.17;2.50;;;;;;;25.92;40.35;100105.87;1720736;83;21044;-42
2021/08/13 09:44:30;;;;;;;4.42;2.65;;;;;;;25.94;40.36;100108.37;1691466;84;21099;-43
2021/08/13 09:47:05;;;;;;;5.47;2.77;;;;;;;26.05;39.86;100112.79;1720741;83;21089;-43
2021/08/13 09:49:34;;;;;;;4.45;2.90;;;;;;;26.16;38.62;100108.45;1691434;84;21004;-42
2021/08/13 09:52:17;;;;;;;6.30;2.80;;;;;;;26.33;38.57;100104.34;1720786;83;21591;-43
2021/08/13 09:54:49;;;;;;;3.45;2.52;;;;;;;26.56;38.41;100103.77;1720488;83;21533;-42
2021/08/13 09:57:17;;;;;;;6.10;3.15;;;;;;;26.86;37.29;100103.12;1691950;84;27132;-43
2021/08/13 10:00:04;;;;;;;4.05;2.42;;;;;;;27.06;37.55;100106.34;1720457;83;21120;-42
2021/08/13 10:02:44;;;;;;;3.85;2.62;;;;;;;27.25;37.07;100108.01;1720224;83;21047;-43
2021/08/13 10:05:24;;;;;;;4.55;2.85;;;;;;;27.43;36.66;100099.00;1691827;84;22159;-43
2021/08/13 10:08:03;;;;;;;3.70;2.65;;;;;;;27.57;37.29;100111.63;1720546;83;21103;-43
2021/08/13 10:10:39;;;;;;;4.97;3.15;;;;;;;27.62;36.87;100102.67;1720554;83;21056;-43
2021/08/13 10:13:10;;;;;;;4.12;3.12;;;;;;;27.66;36.74;100106.09;1691705;84;21992;-43
2021/08/13 10:15:44;;;;;;;7.90;3.52;;;;;;;27.73;36.18;100106.44;1689993;84;21040;-43
2021/08/13 10:18:16;;;;;;;4.40;3.22;;;;;;;27.76;36.06;100107.69;1717389;83;20988;-43
2021/08/13 10:20:48;;;;;;;3.92;3.02;;;;;;;27.84;36.13;100107.55;1691496;84;21009;-43
2021/08/13 10:23:17;;;;;;;3.83;2.98;;;;;;;27.94;36.18;100106.34;1657777;85;21087;-43
2021/08/13 10:25:45;;;;;;;3.87;2.90;;;;;;;28.08;35.69;100104.98;1727852;82;21575;-43
2021/08/13 10:28:14;;;;;;;4.42;3.05;;;;;;;28.12;35.21;100097.92;1715468;82;21387;-43
2021/08/13 10:30:42;;;;;;;3.93;2.93;;;;;;;28.15;35.47;100096.98;1719283;82;21016;-43
2021/08/13 10:33:10;;;;;;;4.72;2.70;;;;;;;28.19;35.33;100107.38;1732449;82;21009;-43
2021/08/13 10:37:39;;;;;;;3.58;2.40;;;;;;;28.31;34.11;100099.51;1816756;78;22712;-43
2021/08/13 10:40:08;;;;;;;4.72;2.98;;;;;;;28.26;34.24;100098.11;1783140;80;21024;-43
2021/08/13 10:42:39;;;;;;;4.65;3.40;;;;;;;28.38;35.00;100095.01;1720686;80;25116;-43
2021/08/13 10:45:10;;;;;;;3.83;3.02;;;;;;;28.51;34.36;100096.41;1759220;80;20929;-43
2021/08/13 10:47:41;;;;;;;4.40;2.90;;;;;;;28.49;34.29;100099.52;1720638;83;22051;-43
2021/08/13 10:50:09;;;;;;;3.52;2.90;;;;;;;28.53;33.71;100096.73;1709694;83;20909;-42
2021/08/13 10:52:40;;;;;;;4.62;2.70;;;;;;;28.62;33.46;100087.58;1723082;83;21494;-42
2021/08/13 10:55:09;;;;;;;4.70;2.60;;;;;;;28.89;34.27;100093.20;1702825;83;21104;-43
2021/08/13 10:57:52;;;;;;;5.60;2.90;;;;;;;29.19;33.77;100082.30;1664725;83;21586;-43
2021/08/13 11:00:21;;;;;;;5.62;2.70;;;;;;;29.28;33.07;100085.06;1716700;81;20956;-43
2021/08/13 11:03:20;;;;;;;3.92;2.92;;;;;;;29.29;33.56;100085.97;1704478;83;21012;-42
2021/08/13 11:05:55;;;;;;;3.25;2.70;;;;;;;29.41;33.36;100081.47;1679445;83;21547;-43
2021/08/13 11:08:43;;;;;;;3.77;3.15;;;;;;;29.66;31.97;100080.29;1718812;83;21125;-43
2021/08/13 11:11:13;;;;;;;5.72;2.62;;;;;;;29.86;30.80;100081.91;1720400;82;21056;-43
2021/08/13 11:13:47;;;;;;;3.40;2.70;;;;;;;30.09;30.71;100087.39;1709210;83;21027;-43
2021/08/13 11:16:32;;;;;;;4.67;2.95;;;;;;;30.34;30.40;100084.74;1693786;83;21550;-43
2021/08/13 11:19:09;;;;;;;2.47;2.27;;;;;;;30.37;30.19;100084.55;1719416;82;21056;-42
2021/08/13 11:21:46;;;;;;;4.03;2.98;;;;;;;30.29;31.12;100091.77;1720788;82;21545;-43
2021/08/13 11:24:19;;;;;;;;;;;;;;;30.20;31.24;100086.23;1721652;83;21038;-42
2021/08/13 11:26:56;;;;;;;4.85;3.10;;;;;;;29.97;31.22;100081.39;1719574;83;20334;-42
2021/08/13 11:29:33;;;;;;;5.75;2.90;;;;;;;29.76;31.05;100083.20;1721756;82;21539;-43
2021/08/13 11:32:25;;;;;;;4.30;2.67;;;;;;;29.74;31.45;100073.88;1699424;82;21566;-43
2021/08/13 11:35:09;;;;;;;8.55;5.45;;;;;;;29.98;31.56;100071.76;1695114;82;21842;-43
2021/08/13 11:37:44;;;;;;;9.25;4.42;;;;;;;30.36;31.35;100062.02;1708857;83;21756;-43
2021/08/13 11:40:19;;;;;;;4.40;3.17;;;;;;;30.75;29.95;100053.63;1705498;82;21154;-43